Retour à l'accueil
METAR - LFQQ - Lille/lesquin
Le Vendredi 12 Fevrier 2016 à 16h30

'LFQQ 121530Z AUTO 08011KT CAVOK 06/01 Q0993'

Secteur Est (080°) à 11 Nds. (19.8 km/h)
Force Beaufort : 4
La visibilité est supérieure à 10km
Il n y a pas de nuages au dessous de1500m
Absence de météores
T° sol : 06°C.
T° pt de rosée : 01°C.
Pression au niveau de la mer : 0993 hPa.
Humidité relative : 70.3 %

Lille/lesquin
   
Longitude Latitude
3,06°E 50,34°N
   
Altitude : 52 m.

Une autre station ?
           
Espace Abonn�s
 Identifiant     Mot de Passe
    
Bulletin vid�o
Cartes d'Alertes
Actualit�s m�t�o
Actu du Jeu 11 Fev Jeu 11 Fev � 15h56
Bulletin national de ce vendredi 12 fevrier 2016

Le courant d’ouest rapide et perturbé se maintient pour les prochains jours. Pour cette fin de semaine, un front en liaison avec un centre dépressionnaire centré au large de l’Atlantique (979hPa) ondulera sur la France en apportant des pluies faibles à modérées. Attention sur le sud-ouest, la lame d’eau est une nouvelle fois assez conséquente, de l’ordre de 15 à 40mm. Le vent est modéré de sud-est le matin avec des pointes jusqu’à 35 à 40 km/h. Il s’oriente à l’est-sud-est l’après-midi en faiblissant. Les températures sont comprises entre 2 et 5°C pour les minimales au nord mais douces sur la moitié sud, entre 6 et 16°C pour les maximales.
Infos M�t�o
Nos Partenaires